createdAt,value
2018-06-19T00:01:04.831Z,10.27
2018-06-19T00:03:33.397Z,11.13
2018-06-19T00:06:08.905Z,10.30
2018-06-19T00:08:37.674Z,10.40
2018-06-19T00:11:07.028Z,8.87
2018-06-19T00:13:35.785Z,9.47
2018-06-19T00:16:04.893Z,9.97
2018-06-19T00:18:36.045Z,9.83
2018-06-19T00:21:08.824Z,9.37
2018-06-19T00:23:37.597Z,8.87
2018-06-19T00:26:06.353Z,8.77
2018-06-19T00:28:37.961Z,9.40
2018-06-19T00:31:06.732Z,9.17
2018-06-19T00:33:35.525Z,10.07
2018-06-19T00:36:04.577Z,10.30
2018-06-19T00:38:33.181Z,10.27
2018-06-19T00:41:01.945Z,10.40
2018-06-19T00:43:30.528Z,10.20
2018-06-19T00:45:59.937Z,10.87
2018-06-19T00:48:28.831Z,12.07
2018-06-19T00:50:57.872Z,13.87
2018-06-19T00:53:26.678Z,11.83
2018-06-19T00:56:05.833Z,11.53
2018-06-19T00:58:34.448Z,12.60
2018-06-19T01:01:03.173Z,12.03
2018-06-19T01:03:31.948Z,12.27
2018-06-19T01:06:00.717Z,13.90
2018-06-19T01:08:29.690Z,11.97
2018-06-19T01:10:58.436Z,12.63
2018-06-19T01:13:27.235Z,11.83
2018-06-19T01:15:55.976Z,11.83
2018-06-19T01:18:24.745Z,12.80
2018-06-19T01:20:53.661Z,11.93
2018-06-19T01:23:22.797Z,12.70
2018-06-19T01:25:51.817Z,11.27
2018-06-19T01:28:20.585Z,12.27
2018-06-19T01:30:49.164Z,12.80
2018-06-19T01:33:17.680Z,12.03
2018-06-19T01:35:46.363Z,12.00
2018-06-19T01:38:15.083Z,13.60
2018-06-19T01:40:43.925Z,12.97
2018-06-19T01:43:12.521Z,13.03
2018-06-19T01:45:41.186Z,13.37
2018-06-19T01:48:09.788Z,13.60
2018-06-19T01:50:38.525Z,13.23
2018-06-19T01:53:07.314Z,13.47
2018-06-19T01:55:36.222Z,13.90
2018-06-19T01:58:05.033Z,13.03
2018-06-19T02:00:33.625Z,13.27
2018-06-19T02:03:02.321Z,13.73
2018-06-19T02:05:31.081Z,13.37
2018-06-19T02:07:59.653Z,13.97
2018-06-19T02:10:28.322Z,14.70
2018-06-19T02:12:57.113Z,15.33
2018-06-19T02:15:25.899Z,14.63
2018-06-19T02:17:54.842Z,14.63
2018-06-19T02:20:23.629Z,15.13
2018-06-19T02:22:52.574Z,13.87
2018-06-19T02:25:21.346Z,14.40
2018-06-19T02:27:50.129Z,14.20
2018-06-19T02:30:18.974Z,14.50
2018-06-19T02:32:47.733Z,14.80
2018-06-19T02:35:16.509Z,16.20
2018-06-19T02:37:45.444Z,16.47
2018-06-19T02:40:14.046Z,15.07
2018-06-19T02:42:42.752Z,15.37
2018-06-19T02:45:11.504Z,15.33
2018-06-19T02:47:40.177Z,16.10
2018-06-19T02:50:08.953Z,15.37
2018-06-19T02:52:37.725Z,18.17
2018-06-19T02:55:06.523Z,16.40
2018-06-19T02:57:35.310Z,15.70
2018-06-19T03:00:04.501Z,16.17
2018-06-19T03:02:33.286Z,15.80
2018-06-19T03:05:02.115Z,17.37
2018-06-19T03:07:30.695Z,16.57
2018-06-19T03:09:59.384Z,15.80
2018-06-19T03:12:28.150Z,16.60
2018-06-19T03:14:56.945Z,16.30
2018-06-19T03:17:26.155Z,17.13
2018-06-19T03:19:54.970Z,17.37
2018-06-19T03:22:23.829Z,17.23
2018-06-19T03:24:52.541Z,16.63
2018-06-19T03:27:21.245Z,16.40
2018-06-19T03:29:50.046Z,16.77
2018-06-19T03:32:18.805Z,17.73
2018-06-19T03:34:47.597Z,18.73
2018-06-19T03:37:16.382Z,18.40
2018-06-19T03:39:45.184Z,18.60
2018-06-19T03:42:13.945Z,17.23
2018-06-19T03:44:42.641Z,18.13
2018-06-19T03:47:11.349Z,18.00
2018-06-19T03:49:40.195Z,18.83
2018-06-19T03:52:08.963Z,17.30
2018-06-19T03:54:37.717Z,17.83
2018-06-19T03:57:06.508Z,19.57
2018-06-19T03:59:35.321Z,18.60
2018-06-19T04:02:04.185Z,18.90
2018-06-19T04:04:32.965Z,19.30
2018-06-19T04:07:01.779Z,19.77
2018-06-19T04:09:30.565Z,19.47
2018-06-19T04:11:59.355Z,21.27
2018-06-19T04:14:28.173Z,20.27
2018-06-19T04:16:56.974Z,19.60
2018-06-19T04:19:25.577Z,21.13
2018-06-19T04:21:54.268Z,21.23
2018-06-19T04:24:23.078Z,21.63
2018-06-19T04:26:51.882Z,20.00
2018-06-19T04:29:20.657Z,20.37
2018-06-19T04:31:49.457Z,18.60
2018-06-19T04:34:18.247Z,20.23
2018-06-19T04:36:47.025Z,19.97
2018-06-19T04:39:15.789Z,20.67
2018-06-19T04:41:44.569Z,18.73
2018-06-19T04:44:13.361Z,19.60
2018-06-19T04:46:42.333Z,20.60
2018-06-19T04:49:10.921Z,21.10
2018-06-19T04:51:39.805Z,19.87
2018-06-19T04:54:08.392Z,19.67
2018-06-19T04:56:37.080Z,20.20
2018-06-19T04:59:05.861Z,20.27
2018-06-19T05:01:34.729Z,19.77
2018-06-19T05:04:03.513Z,20.10
2018-06-19T05:06:32.301Z,18.30
2018-06-19T05:09:01.693Z,20.20
2018-06-19T05:11:30.493Z,18.53
2018-06-19T05:13:59.269Z,19.57
2018-06-19T05:16:28.077Z,18.63
2018-06-19T05:18:56.858Z,18.73
2018-06-19T05:21:25.665Z,19.17
2018-06-19T05:23:54.222Z,18.80
2018-06-19T05:26:23.999Z,18.87
2018-06-19T05:28:52.773Z,17.87
2018-06-19T05:31:21.548Z,18.83
2018-06-19T05:33:50.345Z,19.47
2018-06-19T05:36:19.157Z,19.33
2018-06-19T05:38:47.921Z,17.97
2018-06-19T05:41:16.476Z,18.50
2018-06-19T05:43:45.273Z,17.33
2018-06-19T05:46:14.088Z,19.00
2018-06-19T05:48:42.933Z,17.80
2018-06-19T05:51:11.873Z,17.40
2018-06-19T05:53:40.694Z,16.90
2018-06-19T05:56:09.476Z,17.93
2018-06-19T05:58:38.236Z,16.27
2018-06-19T06:01:07.058Z,16.07
2018-06-19T06:03:35.817Z,17.20
2018-06-19T06:06:04.693Z,17.03
2018-06-19T06:08:33.286Z,15.77
2018-06-19T06:11:01.986Z,15.37
2018-06-19T06:13:30.765Z,17.00
2018-06-19T06:15:59.548Z,16.20
2018-06-19T06:18:28.332Z,16.57
2018-06-19T06:20:56.957Z,16.17
2018-06-19T06:23:25.885Z,16.80
2018-06-19T06:25:54.690Z,17.30
2018-06-19T06:28:23.289Z,16.67
2018-06-19T06:30:51.973Z,16.90
2018-06-19T06:33:20.760Z,17.63
2018-06-19T06:35:49.546Z,16.27
2018-06-19T06:38:18.317Z,17.20
2018-06-19T06:40:47.172Z,16.50
2018-06-19T06:43:15.949Z,17.47
2018-06-19T06:45:44.737Z,16.37
2018-06-19T06:48:13.525Z,15.90
2018-06-19T06:50:42.329Z,17.37
2018-06-19T06:53:11.121Z,17.60
2018-06-19T06:55:39.908Z,18.57
2018-06-19T06:58:08.696Z,18.20
2018-06-19T07:00:37.545Z,19.40
2018-06-19T07:03:06.342Z,19.00
2018-06-19T07:05:35.110Z,19.43
2018-06-19T07:08:03.721Z,19.17
2018-06-19T07:10:32.390Z,18.37
2018-06-19T07:13:01.206Z,17.40
2018-06-19T07:15:30.169Z,17.13
2018-06-19T07:17:58.977Z,17.37
2018-06-19T07:20:27.741Z,16.20
2018-06-19T07:22:56.309Z,15.50
2018-06-19T07:25:24.816Z,16.47
2018-06-19T07:27:53.525Z,16.80
2018-06-19T07:30:22.299Z,18.60
2018-06-19T07:32:51.082Z,16.83
2018-06-19T07:35:19.888Z,17.67
2018-06-19T07:37:48.766Z,16.10
2018-06-19T07:40:17.332Z,16.73
2018-06-19T07:42:46.024Z,15.83
2018-06-19T07:45:14.807Z,15.97
2018-06-19T07:47:43.605Z,14.73
2018-06-19T07:50:12.175Z,14.67
2018-06-19T07:52:40.884Z,14.97
2018-06-19T07:55:09.702Z,14.13
2018-06-19T07:57:38.496Z,13.90
2018-06-19T08:00:07.298Z,14.13
2018-06-19T08:02:36.095Z,14.03
2018-06-19T08:05:05.069Z,13.20
2018-06-19T08:07:33.857Z,12.67
2018-06-19T08:10:02.721Z,12.90
2018-06-19T08:12:31.528Z,12.47
2018-06-19T08:15:00.325Z,13.73
2018-06-19T08:17:29.134Z,11.27
2018-06-19T08:19:57.984Z,11.17
2018-06-19T08:22:26.777Z,11.17
2018-06-19T08:24:55.585Z,10.13
2018-06-19T08:27:24.397Z,8.07
2018-06-19T08:29:53.177Z,10.03
2018-06-19T08:32:21.981Z,9.00
2018-06-19T08:34:50.738Z,9.33
2018-06-19T08:37:19.529Z,7.77
2018-06-19T08:39:48.292Z,7.90
2018-06-19T08:42:17.136Z,8.37
2018-06-19T08:44:45.710Z,7.77
2018-06-19T08:47:14.208Z,7.70
2018-06-19T08:49:43.034Z,8.10
2018-06-19T08:52:11.808Z,7.90
2018-06-19T08:54:40.569Z,7.80
2018-06-19T08:57:09.145Z,7.33
2018-06-19T08:59:37.821Z,8.63
2018-06-19T09:02:06.606Z,7.60
2018-06-19T09:04:35.393Z,7.47
2018-06-19T09:07:04.265Z,7.40
2018-06-19T09:09:33.057Z,7.07
2018-06-19T09:12:01.938Z,7.50
2018-06-19T09:14:30.713Z,7.30
2018-06-19T09:16:59.545Z,7.47
2018-06-19T09:19:28.329Z,6.47
2018-06-19T09:21:57.135Z,6.43
2018-06-19T09:24:25.701Z,6.00
2018-06-19T09:26:54.397Z,6.07
2018-06-19T09:29:23.177Z,7.20
2018-06-19T09:31:51.949Z,7.17
2018-06-19T09:34:20.769Z,7.80
2018-06-19T09:36:49.549Z,8.63
2018-06-19T09:39:18.333Z,7.30
2018-06-19T09:41:47.106Z,8.50
2018-06-19T09:44:15.909Z,8.03
2018-06-19T09:46:44.681Z,8.60
2018-06-19T09:49:13.484Z,8.93
2018-06-19T09:51:42.775Z,8.50
2018-06-19T09:54:11.593Z,8.90
2018-06-19T09:56:40.659Z,8.67
2018-06-19T09:59:09.523Z,7.60
2018-06-19T10:01:38.185Z,8.43
2018-06-19T10:04:07.049Z,8.93
2018-06-19T10:06:35.918Z,8.97
2018-06-19T10:09:07.168Z,8.63
2018-06-19T10:11:35.942Z,8.83
2018-06-19T10:14:04.760Z,9.30
2018-06-19T10:16:33.522Z,10.00
2018-06-19T10:19:02.346Z,8.97
2018-06-19T10:21:30.942Z,9.73
2018-06-19T10:23:59.647Z,9.20
2018-06-19T10:26:28.472Z,9.37
2018-06-19T10:28:57.522Z,8.73
2018-06-19T10:31:26.321Z,9.33
2018-06-19T10:33:55.100Z,8.67
2018-06-19T10:36:23.865Z,9.03
2018-06-19T10:38:52.456Z,8.57
2018-06-19T10:41:21.244Z,7.03
2018-06-19T10:43:50.025Z,6.80
2018-06-19T10:46:18.811Z,7.43
2018-06-19T10:48:47.598Z,6.80
2018-06-19T10:51:16.206Z,6.83
2018-06-19T10:53:44.966Z,6.70
2018-06-19T10:56:13.730Z,6.10
2018-06-19T10:58:42.513Z,5.50
2018-06-19T11:01:11.332Z,5.70
2018-06-19T11:03:40.133Z,5.57
2018-06-19T11:06:08.687Z,5.57
2018-06-19T11:08:37.385Z,5.00
2018-06-19T11:11:06.174Z,6.07
2018-06-19T11:13:35.006Z,4.80
2018-06-19T11:16:03.769Z,4.90
2018-06-19T11:18:32.541Z,4.00
2018-06-19T11:21:01.330Z,3.97
2018-06-19T11:23:30.127Z,4.70
2018-06-19T11:25:58.729Z,4.07
2018-06-19T11:28:27.414Z,4.63
2018-06-19T11:30:56.230Z,4.73
2018-06-19T11:33:25.022Z,4.80
2018-06-19T11:35:53.803Z,3.43
2018-06-19T11:38:22.567Z,3.83
2018-06-19T11:40:51.133Z,3.63
2018-06-19T11:43:19.870Z,3.13
2018-06-19T11:45:48.425Z,2.37
2018-06-19T11:48:17.105Z,2.80
2018-06-19T11:50:45.889Z,2.70
2018-06-19T11:53:14.460Z,2.70
2018-06-19T11:55:43.148Z,2.73
2018-06-19T11:58:11.749Z,2.37
2018-06-19T12:00:40.441Z,2.07
2018-06-19T12:03:09.305Z,2.00
2018-06-19T12:05:38.840Z,1.90
2018-06-19T12:08:07.585Z,2.17
2018-06-19T12:10:36.601Z,1.60
2018-06-19T12:13:05.229Z,1.73
2018-06-19T12:15:33.905Z,1.90
2018-06-19T12:18:02.669Z,1.67
2018-06-19T12:20:31.564Z,2.00
2018-06-19T12:23:00.321Z,1.80
2018-06-19T12:25:29.126Z,1.50
2018-06-19T12:27:57.694Z,1.70
2018-06-19T12:30:26.181Z,1.37
2018-06-19T12:32:54.777Z,1.40
2018-06-19T12:35:23.475Z,1.10
2018-06-19T12:37:52.253Z,1.43
2018-06-19T12:40:21.054Z,1.17
2018-06-19T12:42:49.846Z,1.17
2018-06-19T12:45:18.610Z,1.27
2018-06-19T12:47:47.193Z,1.33
2018-06-19T12:50:37.496Z,1.17
2018-06-19T12:53:18.362Z,1.13
2018-06-19T12:55:52.937Z,1.10
2018-06-19T12:58:21.609Z,1.17
2018-06-19T13:00:50.402Z,1.37
2018-06-19T13:03:30.681Z,1.37
2018-06-19T13:06:11.402Z,1.40
2018-06-19T13:08:40.164Z,1.07
2018-06-19T13:11:09.401Z,1.27
2018-06-19T13:13:49.504Z,1.27
2018-06-19T13:16:29.789Z,0.90
2018-06-19T13:19:04.550Z,1.30
2018-06-19T13:21:33.409Z,1.27
2018-06-19T13:24:01.989Z,1.20
2018-06-19T13:26:30.706Z,1.40
2018-06-19T13:29:36.838Z,1.30
2018-06-19T13:32:05.660Z,2.10
2018-06-19T13:34:35.329Z,1.80
2018-06-19T13:37:04.381Z,1.20
2018-06-19T13:39:33.629Z,1.53
2018-06-19T13:42:07.976Z,1.30
2018-06-19T13:45:07.664Z,2.00
2018-06-19T13:47:36.219Z,1.80
2018-06-19T13:50:04.889Z,1.77
2018-06-19T13:52:33.890Z,1.63
2018-06-19T13:56:16.586Z,1.90
2018-06-19T13:58:45.389Z,1.67
2018-06-19T14:01:14.161Z,1.60
2018-06-19T14:03:42.980Z,1.40
2018-06-19T14:06:11.757Z,2.00
2018-06-19T14:09:06.181Z,2.10
2018-06-19T14:12:59.869Z,1.40
2018-06-19T14:15:29.781Z,1.47
2018-06-19T14:17:58.629Z,1.40
2018-06-19T14:20:27.341Z,1.63
2018-06-19T14:22:56.116Z,1.80
2018-06-19T14:25:25.166Z,1.30
2018-06-19T14:27:54.010Z,1.60
2018-06-19T14:30:22.757Z,1.30
2018-06-19T14:32:51.656Z,1.47
2018-06-19T14:35:20.419Z,2.00
2018-06-19T14:37:49.173Z,1.80
2018-06-19T14:40:17.779Z,1.53
2018-06-19T14:42:46.458Z,1.60
2018-06-19T14:45:15.009Z,1.40
2018-06-19T14:47:44.021Z,1.67
2018-06-19T14:50:12.886Z,1.53
2018-06-19T14:52:41.749Z,1.50
2018-06-19T14:55:10.822Z,2.10
2018-06-19T14:57:40.001Z,1.80
2018-06-19T15:00:09.260Z,1.77
2018-06-19T15:02:38.131Z,1.50
2018-06-19T15:05:07.254Z,2.50
2018-06-19T15:07:41.388Z,1.60
2018-06-19T15:10:10.255Z,2.00
2018-06-19T15:12:38.974Z,1.77
2018-06-19T15:15:07.760Z,2.23
2018-06-19T15:17:36.556Z,2.10
2018-06-19T15:20:05.363Z,1.63
2018-06-19T15:22:34.113Z,2.20
2018-06-19T15:25:02.873Z,1.70
2018-06-19T15:27:31.649Z,1.77
2018-06-19T15:30:00.433Z,1.80
2018-06-19T15:32:29.230Z,1.87
2018-06-19T15:34:57.997Z,2.00
2018-06-19T15:37:26.774Z,2.20
2018-06-19T15:39:55.533Z,1.97
2018-06-19T15:42:24.281Z,2.07
2018-06-19T15:44:53.063Z,1.93
2018-06-19T15:47:21.804Z,2.20
2018-06-19T15:49:50.577Z,2.60
2018-06-19T15:52:19.377Z,2.07
2018-06-19T15:54:48.145Z,2.27
2018-06-19T15:57:16.939Z,1.90
2018-06-19T15:59:45.682Z,2.77
2018-06-19T16:02:14.429Z,1.93
2018-06-19T16:04:43.205Z,2.53
2018-06-19T16:07:11.960Z,1.90
2018-06-19T16:09:40.772Z,1.77
2018-06-19T16:12:09.552Z,2.00
2018-06-19T16:14:38.329Z,2.27
2018-06-19T16:17:07.093Z,1.93
2018-06-19T16:19:35.863Z,2.50
2018-06-19T16:22:04.633Z,2.10
2018-06-19T16:24:33.381Z,1.97
2018-06-19T16:27:02.193Z,2.60
2018-06-19T16:29:31.065Z,2.07
2018-06-19T16:31:59.833Z,2.00
2018-06-19T16:34:28.636Z,2.10
2018-06-19T16:36:57.384Z,2.80
2018-06-19T16:39:26.197Z,2.73
2018-06-19T16:41:54.975Z,2.43
2018-06-19T16:44:23.732Z,2.53
2018-06-19T16:46:52.505Z,1.80
2018-06-19T16:49:21.293Z,2.00
2018-06-19T16:51:50.098Z,1.93
2018-06-19T16:54:18.877Z,2.57
2018-06-19T16:56:47.661Z,2.33
2018-06-19T16:59:16.418Z,2.10
2018-06-19T17:01:45.171Z,2.00
2018-06-19T17:04:13.949Z,2.40
2018-06-19T17:06:42.712Z,2.13
2018-06-19T17:09:11.513Z,2.00
2018-06-19T17:11:40.349Z,2.00
2018-06-19T17:14:09.331Z,2.23
2018-06-19T17:16:38.102Z,1.73
2018-06-19T17:19:06.653Z,1.83
2018-06-19T17:21:35.144Z,2.10
2018-06-19T17:24:03.838Z,2.17
2018-06-19T17:26:32.637Z,3.87
2018-06-19T17:29:01.674Z,2.10
2018-06-19T17:31:30.481Z,2.13
2018-06-19T17:33:59.278Z,2.47
2018-06-19T17:36:28.249Z,2.00
2018-06-19T17:38:57.012Z,2.30
2018-06-19T17:41:25.786Z,2.90
2018-06-19T17:43:54.550Z,2.10
2018-06-19T17:46:23.301Z,2.40
2018-06-19T17:48:52.085Z,1.93
2018-06-19T17:51:20.831Z,2.30
2018-06-19T17:53:49.589Z,2.00
2018-06-19T17:56:18.360Z,2.03
2018-06-19T17:58:47.202Z,2.30
2018-06-19T18:01:16.061Z,2.20
2018-06-19T18:03:44.848Z,1.67
2018-06-19T18:06:13.618Z,2.70
2018-06-19T18:08:42.368Z,2.10
2018-06-19T18:11:11.133Z,2.07
2018-06-19T18:13:39.933Z,2.10
2018-06-19T18:16:08.710Z,2.13
2018-06-19T18:18:37.470Z,2.23
2018-06-19T18:21:06.229Z,2.20
2018-06-19T18:23:35.010Z,2.30
2018-06-19T18:26:03.845Z,2.60
2018-06-19T18:28:32.710Z,2.43
2018-06-19T18:31:01.478Z,1.87
2018-06-19T18:33:30.233Z,2.47
2018-06-19T18:35:59.001Z,2.30
2018-06-19T18:38:27.768Z,1.87
2018-06-19T18:40:56.821Z,2.00
2018-06-19T18:43:25.572Z,2.13
2018-06-19T18:45:54.346Z,2.43
2018-06-19T18:48:23.124Z,2.80
2018-06-19T18:50:51.909Z,2.40
2018-06-19T18:53:20.658Z,2.47
2018-06-19T18:55:49.453Z,2.20
2018-06-19T18:58:18.313Z,2.27
2018-06-19T19:00:47.187Z,2.87
2018-06-19T19:03:15.940Z,2.30
2018-06-19T19:05:44.717Z,2.30
2018-06-19T19:08:18.812Z,2.83
2018-06-19T19:10:51.574Z,1.90
2018-06-19T19:13:21.585Z,2.83
2018-06-19T19:15:55.629Z,3.60
2018-06-19T19:18:29.788Z,2.87
2018-06-19T19:20:59.629Z,2.40
2018-06-19T19:23:32.495Z,1.90
2018-06-19T19:26:01.306Z,2.10
2018-06-19T19:28:35.496Z,2.10
2018-06-19T19:31:04.246Z,2.47
2018-06-19T19:33:33.004Z,2.23
2018-06-19T19:36:01.815Z,2.60
2018-06-19T19:38:36.045Z,2.50
2018-06-19T19:41:04.946Z,2.50
2018-06-19T19:43:33.705Z,1.97
2018-06-19T19:46:02.601Z,1.73
2018-06-19T19:48:37.001Z,2.20
2018-06-19T19:51:05.867Z,2.23
2018-06-19T19:53:34.665Z,2.23
2018-06-19T19:56:08.792Z,2.37
2018-06-19T19:58:43.015Z,2.23
2018-06-19T20:01:11.817Z,2.63
2018-06-19T20:03:40.610Z,2.20
2018-06-19T20:06:09.430Z,1.80
2018-06-19T20:08:38.198Z,2.40
2018-06-19T20:11:06.969Z,2.10
2018-06-19T20:13:35.741Z,2.53
2018-06-19T20:16:04.536Z,2.60
2018-06-19T20:18:33.338Z,2.33
2018-06-19T20:21:02.109Z,2.00
2018-06-19T20:23:30.918Z,2.60
2018-06-19T20:25:59.729Z,2.10
2018-06-19T20:28:28.513Z,2.07
2018-06-19T20:30:57.321Z,2.13
2018-06-19T20:33:26.176Z,2.57
2018-06-19T20:35:54.930Z,2.27
2018-06-19T20:38:23.726Z,2.30
2018-06-19T20:40:52.529Z,2.40
2018-06-19T20:43:21.308Z,2.40
2018-06-19T20:45:50.229Z,2.50
2018-06-19T20:48:18.916Z,2.70
2018-06-19T20:50:47.380Z,2.57
2018-06-19T20:53:16.425Z,2.23
2018-06-19T20:55:45.252Z,2.20
2018-06-19T20:58:14.030Z,2.03
2018-06-19T21:00:42.817Z,2.60
2018-06-19T21:03:11.637Z,1.97
2018-06-19T21:05:40.381Z,2.50
2018-06-19T21:08:09.073Z,3.13
2018-06-19T21:10:37.973Z,2.30
2018-06-19T21:13:07.287Z,2.20
2018-06-19T21:15:36.157Z,2.40
2018-06-19T21:18:04.949Z,2.60
2018-06-19T21:20:33.736Z,2.10
2018-06-19T21:23:02.570Z,3.00
2018-06-19T21:25:31.361Z,2.43
2018-06-19T21:27:59.913Z,2.37
2018-06-19T21:30:28.875Z,2.70
2018-06-19T21:32:57.629Z,2.30
2018-06-19T21:35:26.416Z,2.37
2018-06-19T21:37:55.184Z,2.83
2018-06-19T21:40:23.968Z,2.70
2018-06-19T21:42:52.729Z,2.57
2018-06-19T21:45:21.504Z,2.47
2018-06-19T21:47:50.261Z,2.40
2018-06-19T21:50:19.046Z,3.00
2018-06-19T21:52:47.801Z,2.67
2018-06-19T21:55:16.589Z,2.60
2018-06-19T21:57:45.502Z,2.23
2018-06-19T22:00:14.066Z,3.30
2018-06-19T22:02:42.573Z,2.97
2018-06-19T22:05:11.249Z,2.80
2018-06-19T22:07:39.845Z,2.87
2018-06-19T22:10:08.530Z,2.53
2018-06-19T22:12:37.243Z,2.70
2018-06-19T22:15:05.929Z,2.80
2018-06-19T22:17:34.689Z,3.23
2018-06-19T22:20:03.476Z,2.47
2018-06-19T22:22:32.057Z,3.17
2018-06-19T22:25:00.845Z,2.97
2018-06-19T22:27:29.693Z,2.90
2018-06-19T22:29:58.469Z,2.53
2018-06-19T22:32:27.315Z,2.20
2018-06-19T22:34:56.076Z,3.40
2018-06-19T22:37:24.901Z,3.00
2018-06-19T22:39:53.678Z,3.10
2018-06-19T22:42:22.257Z,3.13
2018-06-19T22:44:50.945Z,3.50
2018-06-19T22:47:19.588Z,2.87
2018-06-19T22:49:48.284Z,2.70
2018-06-19T22:52:17.069Z,3.13
2018-06-19T22:54:45.857Z,3.07
2018-06-19T22:57:14.637Z,3.00
2018-06-19T22:59:43.437Z,2.67
2018-06-19T23:02:12.220Z,3.27
2018-06-19T23:04:41.153Z,3.57
2018-06-19T23:07:09.994Z,3.13
2018-06-19T23:09:38.793Z,3.00
2018-06-19T23:12:07.557Z,2.90
2018-06-19T23:14:36.494Z,2.83
2018-06-19T23:17:05.242Z,3.17
2018-06-19T23:19:34.023Z,3.90
2018-06-19T23:22:02.773Z,3.97
2018-06-19T23:24:31.360Z,3.33
2018-06-19T23:27:00.093Z,3.50
2018-06-19T23:29:28.845Z,3.10
2018-06-19T23:31:57.773Z,3.40
2018-06-19T23:34:26.525Z,3.10
2018-06-19T23:36:55.320Z,3.40
2018-06-19T23:39:24.225Z,3.60
2018-06-19T23:41:52.981Z,3.60
2018-06-19T23:44:21.600Z,4.17
2018-06-19T23:46:50.262Z,3.50
2018-06-19T23:49:19.022Z,3.73
2018-06-19T23:51:48.097Z,3.80
2018-06-19T23:54:16.866Z,3.33
2018-06-19T23:56:45.801Z,3.80
2018-06-19T23:59:14.577Z,3.37
